sensor_id;sensor_type;location;lat;lon;timestamp;P1;durP1;ratioP1;P2;durP2;ratioP2
33381;SDS011;21342;48.786;9.166;2022-11-24T00:02:12;7.37;;;3.60;;
33381;SDS011;21342;48.786;9.166;2022-11-24T00:04:39;9.30;;;3.30;;
33381;SDS011;21342;48.786;9.166;2022-11-24T00:07:08;9.93;;;3.70;;
33381;SDS011;21342;48.786;9.166;2022-11-24T00:09:35;11.20;;;3.50;;
33381;SDS011;21342;48.786;9.166;2022-11-24T00:12:03;11.23;;;3.10;;
33381;SDS011;21342;48.786;9.166;2022-11-24T00:14:30;6.40;;;3.17;;
33381;SDS011;21342;48.786;9.166;2022-11-24T00:16:57;8.20;;;2.80;;
33381;SDS011;21342;48.786;9.166;2022-11-24T00:19:24;13.33;;;4.37;;
33381;SDS011;21342;48.786;9.166;2022-11-24T00:21:52;8.10;;;3.50;;
33381;SDS011;21342;48.786;9.166;2022-11-24T00:24:20;8.07;;;3.43;;
33381;SDS011;21342;48.786;9.166;2022-11-24T00:26:47;5.73;;;3.67;;
33381;SDS011;21342;48.786;9.166;2022-11-24T00:29:15;11.13;;;3.37;;
33381;SDS011;21342;48.786;9.166;2022-11-24T00:31:42;8.20;;;4.73;;
33381;SDS011;21342;48.786;9.166;2022-11-24T00:34:09;4.03;;;3.63;;
33381;SDS011;21342;48.786;9.166;2022-11-24T00:36:38;13.17;;;3.27;;
33381;SDS011;21342;48.786;9.166;2022-11-24T00:39:06;11.33;;;3.37;;
33381;SDS011;21342;48.786;9.166;2022-11-24T00:41:37;8.13;;;3.50;;
33381;SDS011;21342;48.786;9.166;2022-11-24T00:44:05;10.23;;;3.63;;
33381;SDS011;21342;48.786;9.166;2022-11-24T00:46:32;5.03;;;2.83;;
33381;SDS011;21342;48.786;9.166;2022-11-24T00:49:00;5.20;;;3.07;;
33381;SDS011;21342;48.786;9.166;2022-11-24T00:51:27;6.80;;;2.80;;
33381;SDS011;21342;48.786;9.166;2022-11-24T00:53:55;8.63;;;3.70;;
33381;SDS011;21342;48.786;9.166;2022-11-24T00:56:22;8.50;;;3.50;;
33381;SDS011;21342;48.786;9.166;2022-11-24T00:58:51;10.27;;;3.60;;
33381;SDS011;21342;48.786;9.166;2022-11-24T01:01:19;3.40;;;2.47;;
33381;SDS011;21342;48.786;9.166;2022-11-24T01:03:47;10.20;;;3.83;;
33381;SDS011;21342;48.786;9.166;2022-11-24T01:06:15;3.93;;;2.73;;
33381;SDS011;21342;48.786;9.166;2022-11-24T01:08:44;5.57;;;3.37;;
33381;SDS011;21342;48.786;9.166;2022-11-24T01:11:13;6.50;;;3.40;;
33381;SDS011;21342;48.786;9.166;2022-11-24T01:13:41;10.87;;;3.80;;
33381;SDS011;21342;48.786;9.166;2022-11-24T01:16:17;5.60;;;3.50;;
33381;SDS011;21342;48.786;9.166;2022-11-24T01:18:46;7.97;;;3.00;;
33381;SDS011;21342;48.786;9.166;2022-11-24T01:21:14;8.00;;;3.17;;
33381;SDS011;21342;48.786;9.166;2022-11-24T01:23:42;4.83;;;3.40;;
33381;SDS011;21342;48.786;9.166;2022-11-24T01:26:10;5.73;;;3.17;;
33381;SDS011;21342;48.786;9.166;2022-11-24T01:28:38;9.33;;;3.40;;
33381;SDS011;21342;48.786;9.166;2022-11-24T01:31:06;7.87;;;3.23;;
33381;SDS011;21342;48.786;9.166;2022-11-24T01:33:35;5.30;;;2.80;;
33381;SDS011;21342;48.786;9.166;2022-11-24T01:36:03;8.23;;;3.13;;
33381;SDS011;21342;48.786;9.166;2022-11-24T01:38:31;5.37;;;3.10;;
33381;SDS011;21342;48.786;9.166;2022-11-24T01:40:59;9.30;;;2.90;;
33381;SDS011;21342;48.786;9.166;2022-11-24T01:43:27;4.57;;;2.83;;
33381;SDS011;21342;48.786;9.166;2022-11-24T01:45:54;8.73;;;3.60;;
33381;SDS011;21342;48.786;9.166;2022-11-24T01:48:24;8.80;;;3.20;;
33381;SDS011;21342;48.786;9.166;2022-11-24T01:50:59;5.73;;;2.80;;
33381;SDS011;21342;48.786;9.166;2022-11-24T01:53:32;5.60;;;3.47;;
33381;SDS011;21342;48.786;9.166;2022-11-24T01:56:00;7.43;;;3.30;;
33381;SDS011;21342;48.786;9.166;2022-11-24T01:58:28;7.90;;;3.20;;
33381;SDS011;21342;48.786;9.166;2022-11-24T02:00:58;3.97;;;3.67;;
33381;SDS011;21342;48.786;9.166;2022-11-24T02:03:26;7.00;;;3.00;;
33381;SDS011;21342;48.786;9.166;2022-11-24T02:05:56;10.07;;;3.07;;
33381;SDS011;21342;48.786;9.166;2022-11-24T02:08:29;9.07;;;3.30;;
33381;SDS011;21342;48.786;9.166;2022-11-24T02:11:01;7.70;;;3.47;;
33381;SDS011;21342;48.786;9.166;2022-11-24T02:13:30;10.80;;;4.43;;
33381;SDS011;21342;48.786;9.166;2022-11-24T02:15:59;6.30;;;2.83;;
33381;SDS011;21342;48.786;9.166;2022-11-24T02:18:27;4.97;;;2.73;;
33381;SDS011;21342;48.786;9.166;2022-11-24T02:20:55;9.43;;;2.87;;
33381;SDS011;21342;48.786;9.166;2022-11-24T02:23:26;6.00;;;2.97;;
33381;SDS011;21342;48.786;9.166;2022-11-24T02:26:01;18.70;;;5.50;;
33381;SDS011;21342;48.786;9.166;2022-11-24T02:28:35;5.07;;;2.90;;
33381;SDS011;21342;48.786;9.166;2022-11-24T02:31:03;9.57;;;4.07;;
33381;SDS011;21342;48.786;9.166;2022-11-24T02:33:31;11.23;;;3.47;;
33381;SDS011;21342;48.786;9.166;2022-11-24T02:35:59;6.77;;;2.80;;
33381;SDS011;21342;48.786;9.166;2022-11-24T02:38:28;6.37;;;2.87;;
33381;SDS011;21342;48.786;9.166;2022-11-24T02:40:56;4.03;;;2.37;;
33381;SDS011;21342;48.786;9.166;2022-11-24T02:43:25;7.50;;;3.00;;
33381;SDS011;21342;48.786;9.166;2022-11-24T02:45:57;5.23;;;2.80;;
33381;SDS011;21342;48.786;9.166;2022-11-24T02:48:24;6.30;;;3.10;;
33381;SDS011;21342;48.786;9.166;2022-11-24T02:50:52;6.17;;;3.40;;
33381;SDS011;21342;48.786;9.166;2022-11-24T02:53:19;8.67;;;3.67;;
33381;SDS011;21342;48.786;9.166;2022-11-24T02:55:46;5.23;;;2.83;;
33381;SDS011;21342;48.786;9.166;2022-11-24T02:58:14;6.43;;;3.40;;
33381;SDS011;21342;48.786;9.166;2022-11-24T03:00:41;4.63;;;2.30;;
33381;SDS011;21342;48.786;9.166;2022-11-24T03:03:09;3.53;;;2.47;;
33381;SDS011;21342;48.786;9.166;2022-11-24T03:05:37;5.17;;;3.20;;
33381;SDS011;21342;48.786;9.166;2022-11-24T03:08:04;7.73;;;3.07;;
33381;SDS011;21342;48.786;9.166;2022-11-24T03:10:31;7.30;;;3.10;;
33381;SDS011;21342;48.786;9.166;2022-11-24T03:12:58;3.50;;;3.00;;
33381;SDS011;21342;48.786;9.166;2022-11-24T03:15:26;4.47;;;2.90;;
33381;SDS011;21342;48.786;9.166;2022-11-24T03:17:53;5.20;;;2.70;;
33381;SDS011;21342;48.786;9.166;2022-11-24T03:20:22;4.43;;;2.30;;
33381;SDS011;21342;48.786;9.166;2022-11-24T03:22:50;6.73;;;2.93;;
33381;SDS011;21342;48.786;9.166;2022-11-24T03:25:17;4.13;;;2.87;;
33381;SDS011;21342;48.786;9.166;2022-11-24T03:27:45;5.50;;;2.50;;
33381;SDS011;21342;48.786;9.166;2022-11-24T03:30:12;5.07;;;2.97;;
33381;SDS011;21342;48.786;9.166;2022-11-24T03:32:40;5.60;;;2.70;;
33381;SDS011;21342;48.786;9.166;2022-11-24T03:35:08;3.27;;;2.40;;
33381;SDS011;21342;48.786;9.166;2022-11-24T03:37:36;7.20;;;2.90;;
33381;SDS011;21342;48.786;9.166;2022-11-24T03:40:04;7.10;;;4.27;;
33381;SDS011;21342;48.786;9.166;2022-11-24T03:42:32;3.93;;;2.50;;
33381;SDS011;21342;48.786;9.166;2022-11-24T03:44:59;3.10;;;2.13;;
33381;SDS011;21342;48.786;9.166;2022-11-24T03:47:26;6.40;;;2.77;;
33381;SDS011;21342;48.786;9.166;2022-11-24T03:49:54;3.53;;;2.50;;
33381;SDS011;21342;48.786;9.166;2022-11-24T03:52:21;9.20;;;2.70;;
33381;SDS011;21342;48.786;9.166;2022-11-24T03:54:52;5.00;;;2.67;;
33381;SDS011;21342;48.786;9.166;2022-11-24T03:57:19;9.53;;;2.83;;
33381;SDS011;21342;48.786;9.166;2022-11-24T03:59:46;3.70;;;2.63;;
33381;SDS011;21342;48.786;9.166;2022-11-24T04:02:14;6.93;;;2.20;;
33381;SDS011;21342;48.786;9.166;2022-11-24T04:04:41;8.50;;;2.77;;
33381;SDS011;21342;48.786;9.166;2022-11-24T04:07:08;4.40;;;2.40;;
33381;SDS011;21342;48.786;9.166;2022-11-24T04:09:35;5.63;;;2.60;;
33381;SDS011;21342;48.786;9.166;2022-11-24T04:12:04;8.03;;;2.57;;
33381;SDS011;21342;48.786;9.166;2022-11-24T04:14:49;2.87;;;2.57;;
33381;SDS011;21342;48.786;9.166;2022-11-24T04:17:16;5.70;;;2.60;;
33381;SDS011;21342;48.786;9.166;2022-11-24T04:19:43;3.67;;;2.43;;
33381;SDS011;21342;48.786;9.166;2022-11-24T04:22:10;3.83;;;2.97;;
33381;SDS011;21342;48.786;9.166;2022-11-24T04:24:37;4.17;;;2.63;;
33381;SDS011;21342;48.786;9.166;2022-11-24T04:27:06;4.87;;;2.43;;
33381;SDS011;21342;48.786;9.166;2022-11-24T04:29:33;3.23;;;2.30;;
33381;SDS011;21342;48.786;9.166;2022-11-24T04:32:00;9.50;;;2.50;;
33381;SDS011;21342;48.786;9.166;2022-11-24T04:34:28;5.37;;;2.53;;
33381;SDS011;21342;48.786;9.166;2022-11-24T04:36:55;4.13;;;3.13;;
33381;SDS011;21342;48.786;9.166;2022-11-24T04:39:22;6.57;;;2.30;;
33381;SDS011;21342;48.786;9.166;2022-11-24T04:41:49;6.20;;;2.63;;
33381;SDS011;21342;48.786;9.166;2022-11-24T04:44:18;3.00;;;2.17;;
33381;SDS011;21342;48.786;9.166;2022-11-24T04:46:45;7.00;;;2.60;;
33381;SDS011;21342;48.786;9.166;2022-11-24T04:49:12;5.33;;;3.03;;
33381;SDS011;21342;48.786;9.166;2022-11-24T04:51:40;2.93;;;2.37;;
33381;SDS011;21342;48.786;9.166;2022-11-24T04:54:08;3.47;;;2.90;;
33381;SDS011;21342;48.786;9.166;2022-11-24T04:56:36;4.37;;;2.73;;
33381;SDS011;21342;48.786;9.166;2022-11-24T04:59:03;7.47;;;2.80;;
33381;SDS011;21342;48.786;9.166;2022-11-24T05:01:32;5.50;;;2.60;;
33381;SDS011;21342;48.786;9.166;2022-11-24T05:03:59;4.83;;;3.10;;
33381;SDS011;21342;48.786;9.166;2022-11-24T05:06:27;9.43;;;2.80;;
33381;SDS011;21342;48.786;9.166;2022-11-24T05:08:54;4.87;;;2.20;;
33381;SDS011;21342;48.786;9.166;2022-11-24T05:11:21;6.67;;;3.33;;
33381;SDS011;21342;48.786;9.166;2022-11-24T05:13:47;6.53;;;2.83;;
33381;SDS011;21342;48.786;9.166;2022-11-24T05:16:14;5.13;;;3.10;;
33381;SDS011;21342;48.786;9.166;2022-11-24T05:18:43;12.33;;;2.90;;
33381;SDS011;21342;48.786;9.166;2022-11-24T05:21:11;5.53;;;2.97;;
33381;SDS011;21342;48.786;9.166;2022-11-24T05:23:38;9.13;;;2.87;;
33381;SDS011;21342;48.786;9.166;2022-11-24T05:26:06;5.77;;;3.27;;
33381;SDS011;21342;48.786;9.166;2022-11-24T05:28:33;7.60;;;2.90;;
33381;SDS011;21342;48.786;9.166;2022-11-24T05:31:00;4.07;;;2.47;;
33381;SDS011;21342;48.786;9.166;2022-11-24T05:33:29;6.00;;;2.73;;
33381;SDS011;21342;48.786;9.166;2022-11-24T05:36:00;6.73;;;2.70;;
33381;SDS011;21342;48.786;9.166;2022-11-24T05:38:28;5.37;;;3.40;;
33381;SDS011;21342;48.786;9.166;2022-11-24T05:40:58;7.07;;;3.73;;
33381;SDS011;21342;48.786;9.166;2022-11-24T05:43:26;12.10;;;3.10;;
33381;SDS011;21342;48.786;9.166;2022-11-24T05:45:53;7.63;;;2.83;;
33381;SDS011;21342;48.786;9.166;2022-11-24T05:48:23;7.30;;;2.80;;
33381;SDS011;21342;48.786;9.166;2022-11-24T05:50:53;6.17;;;3.07;;
33381;SDS011;21342;48.786;9.166;2022-11-24T05:53:23;6.57;;;2.80;;
33381;SDS011;21342;48.786;9.166;2022-11-24T05:55:51;4.33;;;2.67;;
33381;SDS011;21342;48.786;9.166;2022-11-24T05:58:18;4.07;;;3.57;;
33381;SDS011;21342;48.786;9.166;2022-11-24T06:00:45;10.00;;;3.07;;
33381;SDS011;21342;48.786;9.166;2022-11-24T06:03:13;7.97;;;3.20;;
33381;SDS011;21342;48.786;9.166;2022-11-24T06:05:44;11.63;;;3.20;;
33381;SDS011;21342;48.786;9.166;2022-11-24T06:08:12;11.83;;;2.80;;
33381;SDS011;21342;48.786;9.166;2022-11-24T06:10:41;5.53;;;3.33;;
33381;SDS011;21342;48.786;9.166;2022-11-24T06:13:08;11.50;;;3.80;;
33381;SDS011;21342;48.786;9.166;2022-11-24T06:15:35;6.40;;;3.00;;
33381;SDS011;21342;48.786;9.166;2022-11-24T06:18:04;6.60;;;2.87;;
33381;SDS011;21342;48.786;9.166;2022-11-24T06:20:31;6.83;;;3.00;;
33381;SDS011;21342;48.786;9.166;2022-11-24T06:22:59;4.70;;;2.77;;
33381;SDS011;21342;48.786;9.166;2022-11-24T06:25:27;10.80;;;3.40;;
33381;SDS011;21342;48.786;9.166;2022-11-24T06:27:56;7.77;;;3.07;;
33381;SDS011;21342;48.786;9.166;2022-11-24T06:30:23;5.83;;;2.70;;
33381;SDS011;21342;48.786;9.166;2022-11-24T06:32:53;7.40;;;2.67;;
33381;SDS011;21342;48.786;9.166;2022-11-24T06:35:20;12.80;;;3.37;;
33381;SDS011;21342;48.786;9.166;2022-11-24T06:37:47;4.40;;;2.87;;
33381;SDS011;21342;48.786;9.166;2022-11-24T06:40:15;7.27;;;4.07;;
33381;SDS011;21342;48.786;9.166;2022-11-24T06:42:48;13.70;;;3.70;;
33381;SDS011;21342;48.786;9.166;2022-11-24T06:45:20;6.03;;;2.90;;
33381;SDS011;21342;48.786;9.166;2022-11-24T06:47:47;11.80;;;2.87;;
33381;SDS011;21342;48.786;9.166;2022-11-24T06:50:15;7.87;;;2.63;;
33381;SDS011;21342;48.786;9.166;2022-11-24T06:52:42;6.27;;;3.40;;
33381;SDS011;21342;48.786;9.166;2022-11-24T06:55:09;6.93;;;3.00;;
33381;SDS011;21342;48.786;9.166;2022-11-24T06:57:37;6.30;;;2.83;;
33381;SDS011;21342;48.786;9.166;2022-11-24T07:00:04;10.67;;;3.97;;
33381;SDS011;21342;48.786;9.166;2022-11-24T07:02:34;12.83;;;3.80;;
33381;SDS011;21342;48.786;9.166;2022-11-24T07:05:02;8.47;;;2.80;;
33381;SDS011;21342;48.786;9.166;2022-11-24T07:07:30;6.00;;;3.93;;
33381;SDS011;21342;48.786;9.166;2022-11-24T07:09:57;11.83;;;4.10;;
33381;SDS011;21342;48.786;9.166;2022-11-24T07:12:24;6.80;;;3.20;;
33381;SDS011;21342;48.786;9.166;2022-11-24T07:14:53;12.07;;;3.90;;
33381;SDS011;21342;48.786;9.166;2022-11-24T07:17:20;10.60;;;4.07;;
33381;SDS011;21342;48.786;9.166;2022-11-24T07:19:49;8.07;;;3.30;;
33381;SDS011;21342;48.786;9.166;2022-11-24T07:22:16;8.80;;;3.37;;
33381;SDS011;21342;48.786;9.166;2022-11-24T07:24:43;4.67;;;3.13;;
33381;SDS011;21342;48.786;9.166;2022-11-24T07:27:10;13.90;;;3.67;;
33381;SDS011;21342;48.786;9.166;2022-11-24T07:29:38;7.43;;;3.47;;
33381;SDS011;21342;48.786;9.166;2022-11-24T07:32:05;4.80;;;3.77;;
33381;SDS011;21342;48.786;9.166;2022-11-24T07:34:32;9.90;;;4.00;;
33381;SDS011;21342;48.786;9.166;2022-11-24T07:37:01;8.83;;;3.97;;
33381;SDS011;21342;48.786;9.166;2022-11-24T07:39:28;8.63;;;3.90;;
33381;SDS011;21342;48.786;9.166;2022-11-24T07:41:56;8.80;;;3.60;;
33381;SDS011;21342;48.786;9.166;2022-11-24T07:44:24;9.60;;;4.13;;
33381;SDS011;21342;48.786;9.166;2022-11-24T07:46:52;6.27;;;4.07;;
33381;SDS011;21342;48.786;9.166;2022-11-24T07:49:19;13.33;;;4.50;;
33381;SDS011;21342;48.786;9.166;2022-11-24T07:51:46;6.23;;;3.50;;
33381;SDS011;21342;48.786;9.166;2022-11-24T07:54:15;12.03;;;5.13;;
33381;SDS011;21342;48.786;9.166;2022-11-24T07:56:42;7.20;;;3.10;;
33381;SDS011;21342;48.786;9.166;2022-11-24T07:59:09;7.43;;;3.43;;
33381;SDS011;21342;48.786;9.166;2022-11-24T08:01:36;8.63;;;2.83;;
33381;SDS011;21342;48.786;9.166;2022-11-24T08:04:04;4.40;;;1.97;;
33381;SDS011;21342;48.786;9.166;2022-11-24T08:06:31;6.77;;;2.57;;
33381;SDS011;21342;48.786;9.166;2022-11-24T08:08:58;5.47;;;2.30;;
33381;SDS011;21342;48.786;9.166;2022-11-24T08:11:27;6.20;;;3.13;;
33381;SDS011;21342;48.786;9.166;2022-11-24T08:13:55;3.43;;;2.77;;
33381;SDS011;21342;48.786;9.166;2022-11-24T08:16:22;7.33;;;2.80;;
33381;SDS011;21342;48.786;9.166;2022-11-24T08:18:50;6.80;;;2.73;;
33381;SDS011;21342;48.786;9.166;2022-11-24T08:21:19;5.77;;;2.70;;
33381;SDS011;21342;48.786;9.166;2022-11-24T08:23:48;4.77;;;2.70;;
33381;SDS011;21342;48.786;9.166;2022-11-24T08:26:15;5.60;;;3.10;;
33381;SDS011;21342;48.786;9.166;2022-11-24T08:28:45;4.27;;;2.67;;
33381;SDS011;21342;48.786;9.166;2022-11-24T08:31:14;5.70;;;3.27;;
33381;SDS011;21342;48.786;9.166;2022-11-24T08:33:43;5.57;;;2.20;;
33381;SDS011;21342;48.786;9.166;2022-11-24T08:36:11;3.30;;;2.60;;
33381;SDS011;21342;48.786;9.166;2022-11-24T08:38:40;3.77;;;2.47;;
33381;SDS011;21342;48.786;9.166;2022-11-24T08:41:09;3.00;;;1.93;;
33381;SDS011;21342;48.786;9.166;2022-11-24T08:43:38;4.17;;;2.10;;
33381;SDS011;21342;48.786;9.166;2022-11-24T08:46:07;7.13;;;3.80;;
33381;SDS011;21342;48.786;9.166;2022-11-24T08:48:36;2.63;;;2.40;;
33381;SDS011;21342;48.786;9.166;2022-11-24T08:51:05;3.80;;;1.97;;
33381;SDS011;21342;48.786;9.166;2022-11-24T08:53:33;2.10;;;1.80;;
33381;SDS011;21342;48.786;9.166;2022-11-24T08:56:01;2.27;;;1.90;;
33381;SDS011;21342;48.786;9.166;2022-11-24T08:58:29;3.57;;;2.00;;
33381;SDS011;21342;48.786;9.166;2022-11-24T09:01:02;6.53;;;2.10;;
33381;SDS011;21342;48.786;9.166;2022-11-24T09:03:31;2.97;;;1.90;;
33381;SDS011;21342;48.786;9.166;2022-11-24T09:05:59;2.03;;;1.80;;
33381;SDS011;21342;48.786;9.166;2022-11-24T09:08:27;4.00;;;1.87;;
33381;SDS011;21342;48.786;9.166;2022-11-24T09:10:57;5.00;;;1.87;;
33381;SDS011;21342;48.786;9.166;2022-11-24T09:13:25;1.97;;;1.40;;
33381;SDS011;21342;48.786;9.166;2022-11-24T09:15:52;2.43;;;1.73;;
33381;SDS011;21342;48.786;9.166;2022-11-24T09:18:20;2.03;;;1.80;;
33381;SDS011;21342;48.786;9.166;2022-11-24T09:20:49;6.13;;;1.57;;
33381;SDS011;21342;48.786;9.166;2022-11-24T09:23:16;2.00;;;1.70;;
33381;SDS011;21342;48.786;9.166;2022-11-24T09:25:43;6.13;;;1.63;;
33381;SDS011;21342;48.786;9.166;2022-11-24T09:28:10;2.40;;;2.00;;
33381;SDS011;21342;48.786;9.166;2022-11-24T09:30:38;3.50;;;2.30;;
33381;SDS011;21342;48.786;9.166;2022-11-24T09:33:05;4.43;;;2.10;;
33381;SDS011;21342;48.786;9.166;2022-11-24T09:35:35;4.53;;;1.80;;
33381;SDS011;21342;48.786;9.166;2022-11-24T09:38:04;2.50;;;1.47;;
33381;SDS011;21342;48.786;9.166;2022-11-24T09:40:31;2.23;;;2.03;;
33381;SDS011;21342;48.786;9.166;2022-11-24T09:42:59;1.53;;;1.43;;
33381;SDS011;21342;48.786;9.166;2022-11-24T09:45:39;1.90;;;1.70;;
33381;SDS011;21342;48.786;9.166;2022-11-24T09:48:13;2.27;;;1.53;;
33381;SDS011;21342;48.786;9.166;2022-11-24T09:50:48;2.13;;;1.67;;
33381;SDS011;21342;48.786;9.166;2022-11-24T09:53:20;2.10;;;1.77;;
33381;SDS011;21342;48.786;9.166;2022-11-24T09:55:54;2.27;;;1.53;;
33381;SDS011;21342;48.786;9.166;2022-11-24T09:58:29;2.20;;;1.60;;
33381;SDS011;21342;48.786;9.166;2022-11-24T10:01:03;1.87;;;1.40;;
33381;SDS011;21342;48.786;9.166;2022-11-24T10:03:38;1.60;;;1.50;;
33381;SDS011;21342;48.786;9.166;2022-11-24T10:06:12;1.50;;;1.30;;
33381;SDS011;21342;48.786;9.166;2022-11-24T10:08:58;1.50;;;1.30;;
33381;SDS011;21342;48.786;9.166;2022-11-24T10:11:40;2.73;;;1.80;;
33381;SDS011;21342;48.786;9.166;2022-11-24T10:14:20;2.00;;;1.80;;
33381;SDS011;21342;48.786;9.166;2022-11-24T10:17:09;1.87;;;1.40;;
33381;SDS011;21342;48.786;9.166;2022-11-24T10:19:44;1.97;;;1.80;;
33381;SDS011;21342;48.786;9.166;2022-11-24T10:22:22;1.80;;;1.50;;
33381;SDS011;21342;48.786;9.166;2022-11-24T10:25:08;1.90;;;1.47;;
33381;SDS011;21342;48.786;9.166;2022-11-24T10:27:44;2.20;;;1.50;;
33381;SDS011;21342;48.786;9.166;2022-11-24T10:30:14;2.90;;;1.80;;
33381;SDS011;21342;48.786;9.166;2022-11-24T10:32:45;4.90;;;1.73;;
33381;SDS011;21342;48.786;9.166;2022-11-24T10:35:16;1.90;;;1.80;;
33381;SDS011;21342;48.786;9.166;2022-11-24T10:37:50;2.13;;;1.60;;
33381;SDS011;21342;48.786;9.166;2022-11-24T10:40:27;1.63;;;1.53;;
33381;SDS011;21342;48.786;9.166;2022-11-24T10:42:59;1.40;;;1.30;;
33381;SDS011;21342;48.786;9.166;2022-11-24T10:45:27;1.40;;;1.30;;
33381;SDS011;21342;48.786;9.166;2022-11-24T10:47:54;2.80;;;1.50;;
33381;SDS011;21342;48.786;9.166;2022-11-24T10:50:24;1.60;;;1.30;;
33381;SDS011;21342;48.786;9.166;2022-11-24T10:52:54;1.40;;;1.27;;
33381;SDS011;21342;48.786;9.166;2022-11-24T10:58:27;1.50;;;1.30;;
33381;SDS011;21342;48.786;9.166;2022-11-24T11:00:57;1.73;;;1.60;;
33381;SDS011;21342;48.786;9.166;2022-11-24T11:03:26;1.50;;;1.40;;
33381;SDS011;21342;48.786;9.166;2022-11-24T11:05:59;3.70;;;1.47;;
33381;SDS011;21342;48.786;9.166;2022-11-24T11:08:29;1.40;;;1.20;;
33381;SDS011;21342;48.786;9.166;2022-11-24T11:11:12;1.83;;;1.37;;
33381;SDS011;21342;48.786;9.166;2022-11-24T11:13:47;2.33;;;1.60;;
33381;SDS011;21342;48.786;9.166;2022-11-24T11:16:23;2.13;;;1.70;;
33381;SDS011;21342;48.786;9.166;2022-11-24T11:18:54;4.67;;;1.93;;
33381;SDS011;21342;48.786;9.166;2022-11-24T11:21:26;2.60;;;2.40;;
33381;SDS011;21342;48.786;9.166;2022-11-24T11:23:58;2.33;;;1.20;;
33381;SDS011;21342;48.786;9.166;2022-11-24T11:26:31;1.40;;;1.30;;
33381;SDS011;21342;48.786;9.166;2022-11-24T11:29:10;2.00;;;1.83;;
33381;SDS011;21342;48.786;9.166;2022-11-24T11:31:55;1.80;;;1.60;;
33381;SDS011;21342;48.786;9.166;2022-11-24T11:34:24;1.70;;;1.47;;
33381;SDS011;21342;48.786;9.166;2022-11-24T11:36:52;3.10;;;2.83;;
33381;SDS011;21342;48.786;9.166;2022-11-24T11:39:23;3.30;;;1.47;;
33381;SDS011;21342;48.786;9.166;2022-11-24T11:41:58;2.87;;;1.70;;
33381;SDS011;21342;48.786;9.166;2022-11-24T11:44:40;2.70;;;1.20;;
33381;SDS011;21342;48.786;9.166;2022-11-24T11:47:18;5.20;;;2.30;;
33381;SDS011;21342;48.786;9.166;2022-11-24T11:49:50;10.50;;;5.23;;
33381;SDS011;21342;48.786;9.166;2022-11-24T11:58:22;3.50;;;2.30;;
33381;SDS011;21342;48.786;9.166;2022-11-24T12:01:11;3.10;;;2.27;;
33381;SDS011;21342;48.786;9.166;2022-11-24T12:04:00;6.40;;;2.70;;
33381;SDS011;21342;48.786;9.166;2022-11-24T12:09:49;3.63;;;1.93;;
33381;SDS011;21342;48.786;9.166;2022-11-24T12:12:34;3.80;;;1.70;;
33381;SDS011;21342;48.786;9.166;2022-11-24T12:15:16;3.93;;;2.40;;
33381;SDS011;21342;48.786;9.166;2022-11-24T12:17:49;4.60;;;2.90;;
33381;SDS011;21342;48.786;9.166;2022-11-24T12:20:27;4.87;;;2.10;;
33381;SDS011;21342;48.786;9.166;2022-11-24T12:23:11;5.83;;;2.40;;
33381;SDS011;21342;48.786;9.166;2022-11-24T12:25:46;4.30;;;2.00;;
33381;SDS011;21342;48.786;9.166;2022-11-24T12:28:25;4.60;;;2.17;;
33381;SDS011;21342;48.786;9.166;2022-11-24T12:31:04;10.23;;;2.20;;
33381;SDS011;21342;48.786;9.166;2022-11-24T12:36:29;5.03;;;1.90;;
33381;SDS011;21342;48.786;9.166;2022-11-24T12:39:09;6.30;;;2.57;;
33381;SDS011;21342;48.786;9.166;2022-11-24T12:41:52;11.30;;;2.47;;
33381;SDS011;21342;48.786;9.166;2022-11-24T12:44:34;3.20;;;1.93;;
33381;SDS011;21342;48.786;9.166;2022-11-24T12:47:21;3.83;;;2.10;;
33381;SDS011;21342;48.786;9.166;2022-11-24T12:49:59;4.70;;;2.90;;
33381;SDS011;21342;48.786;9.166;2022-11-24T12:52:34;9.50;;;2.27;;
33381;SDS011;21342;48.786;9.166;2022-11-24T12:55:07;2.13;;;1.70;;
33381;SDS011;21342;48.786;9.166;2022-11-24T12:57:41;5.87;;;2.53;;
33381;SDS011;21342;48.786;9.166;2022-11-24T13:00:15;3.93;;;2.60;;
33381;SDS011;21342;48.786;9.166;2022-11-24T13:02:53;2.50;;;2.20;;
33381;SDS011;21342;48.786;9.166;2022-11-24T13:05:34;5.57;;;2.10;;
33381;SDS011;21342;48.786;9.166;2022-11-24T13:08:06;8.33;;;2.10;;
33381;SDS011;21342;48.786;9.166;2022-11-24T13:10:34;4.57;;;2.07;;
33381;SDS011;21342;48.786;9.166;2022-11-24T13:13:03;6.97;;;2.40;;
33381;SDS011;21342;48.786;9.166;2022-11-24T13:15:32;4.63;;;2.63;;
33381;SDS011;21342;48.786;9.166;2022-11-24T13:21:33;4.30;;;2.20;;
33381;SDS011;21342;48.786;9.166;2022-11-24T13:24:26;5.30;;;2.00;;
33381;SDS011;21342;48.786;9.166;2022-11-24T13:29:53;3.67;;;2.33;;
33381;SDS011;21342;48.786;9.166;2022-11-24T13:35:27;4.30;;;1.90;;
33381;SDS011;21342;48.786;9.166;2022-11-24T13:37:56;6.00;;;2.20;;
33381;SDS011;21342;48.786;9.166;2022-11-24T13:40:37;5.40;;;2.93;;
33381;SDS011;21342;48.786;9.166;2022-11-24T13:43:19;3.40;;;2.00;;
33381;SDS011;21342;48.786;9.166;2022-11-24T13:45:49;9.30;;;3.03;;
33381;SDS011;21342;48.786;9.166;2022-11-24T13:51:22;4.80;;;1.80;;
33381;SDS011;21342;48.786;9.166;2022-11-24T13:53:51;3.83;;;2.07;;
33381;SDS011;21342;48.786;9.166;2022-11-24T13:56:24;7.87;;;2.60;;
33381;SDS011;21342;48.786;9.166;2022-11-24T13:58:54;4.90;;;2.67;;
33381;SDS011;21342;48.786;9.166;2022-11-24T14:01:24;5.30;;;2.53;;
33381;SDS011;21342;48.786;9.166;2022-11-24T14:04:00;3.10;;;1.90;;
33381;SDS011;21342;48.786;9.166;2022-11-24T14:06:33;6.53;;;2.73;;
33381;SDS011;21342;48.786;9.166;2022-11-24T14:09:06;8.57;;;2.63;;
33381;SDS011;21342;48.786;9.166;2022-11-24T14:11:54;3.53;;;2.20;;
33381;SDS011;21342;48.786;9.166;2022-11-24T14:14:25;7.20;;;2.10;;
33381;SDS011;21342;48.786;9.166;2022-11-24T14:17:05;4.90;;;2.40;;
33381;SDS011;21342;48.786;9.166;2022-11-24T14:19:43;4.50;;;2.70;;
33381;SDS011;21342;48.786;9.166;2022-11-24T14:22:13;6.23;;;2.37;;
33381;SDS011;21342;48.786;9.166;2022-11-24T14:24:44;4.87;;;2.40;;
33381;SDS011;21342;48.786;9.166;2022-11-24T14:27:17;4.17;;;2.47;;
33381;SDS011;21342;48.786;9.166;2022-11-24T14:29:50;7.47;;;3.03;;
33381;SDS011;21342;48.786;9.166;2022-11-24T14:32:19;7.13;;;2.60;;
33381;SDS011;21342;48.786;9.166;2022-11-24T14:34:47;6.67;;;2.77;;
33381;SDS011;21342;48.786;9.166;2022-11-24T14:37:16;8.47;;;2.50;;
33381;SDS011;21342;48.786;9.166;2022-11-24T14:39:44;7.93;;;2.70;;
33381;SDS011;21342;48.786;9.166;2022-11-24T14:42:15;6.83;;;3.53;;
33381;SDS011;21342;48.786;9.166;2022-11-24T14:44:46;4.57;;;2.60;;
33381;SDS011;21342;48.786;9.166;2022-11-24T14:47:18;6.43;;;2.70;;
33381;SDS011;21342;48.786;9.166;2022-11-24T14:49:49;7.33;;;3.10;;
33381;SDS011;21342;48.786;9.166;2022-11-24T14:52:18;7.63;;;3.17;;
33381;SDS011;21342;48.786;9.166;2022-11-24T14:54:48;3.97;;;3.00;;
33381;SDS011;21342;48.786;9.166;2022-11-24T14:57:22;4.87;;;2.63;;
33381;SDS011;21342;48.786;9.166;2022-11-24T15:00:05;6.00;;;3.57;;
33381;SDS011;21342;48.786;9.166;2022-11-24T15:02:41;5.60;;;2.60;;
33381;SDS011;21342;48.786;9.166;2022-11-24T15:05:11;8.70;;;2.80;;
33381;SDS011;21342;48.786;9.166;2022-11-24T15:07:40;6.73;;;2.67;;
33381;SDS011;21342;48.786;9.166;2022-11-24T15:10:18;4.90;;;2.67;;
33381;SDS011;21342;48.786;9.166;2022-11-24T15:12:50;11.40;;;3.87;;
33381;SDS011;21342;48.786;9.166;2022-11-24T15:15:21;10.13;;;3.57;;
33381;SDS011;21342;48.786;9.166;2022-11-24T15:17:52;6.10;;;3.63;;
33381;SDS011;21342;48.786;9.166;2022-11-24T15:20:23;9.13;;;3.50;;
33381;SDS011;21342;48.786;9.166;2022-11-24T15:25:48;4.90;;;3.10;;
33381;SDS011;21342;48.786;9.166;2022-11-24T15:28:16;6.87;;;3.00;;
33381;SDS011;21342;48.786;9.166;2022-11-24T15:30:46;8.03;;;2.93;;
33381;SDS011;21342;48.786;9.166;2022-11-24T15:33:14;6.03;;;2.50;;
33381;SDS011;21342;48.786;9.166;2022-11-24T15:35:43;5.80;;;2.80;;